Blandine — CQDR — position and weather

sailwx.info

Track history (hours):
 
Tides and Currents Weather Stations Pressure Air Temp Water Temp Dewpoint Dewpoint Depression Visibility Wind Speed Wind Dir Waves Ship Positions

Blandine

Last reported at 2017-Dec-14 08:00 UTC. Time now 2017-Dec-16 09:20 UTC.
Position N 38°41' E 015°32'.

Length 295 m; draft 10.1 m.

Type: Ship (hazmat cat A). MMSI: 255805794.

Date/timePositionNaut miles runAvg speedWind from/ knotsBaromVisibWave heightAir tempDewpointWater temp
2017-Dec-14 08:00N 38°41' E 015°32'610.8
2017-Dec-14 07:29N 38°36' E 015°34'611.1
2017-Dec-14 06:59N 38°31' E 015°37'511.4
2017-Dec-14 06:31N 38°25' E 015°39'610.9
2017-Dec-14 06:00N 38°20' E 015°42'7 8.8
2017-Dec-14 05:13N 38°14' E 015°38'313.4
2017-Dec-14 05:00N 38°12' E 015°37'5 9.1
2017-Dec-14 04:27N 38°07' E 015°36'410.0
2017-Dec-14 04:00N 38°02' E 015°36'510.5
2017-Dec-14 03:29N 37°57' E 015°35'610.7
2017-Dec-14 02:58N 37°51' E 015°35'910.9
2017-Dec-14 02:09N 37°42' E 015°35'210.9
2017-Dec-14 02:00N 37°41' E 015°34'511.1
2017-Dec-14 01:30N 37°35' E 015°34'1111.5
2017-Dec-14 00:31N 37°24' E 015°34'8911.2
2017-Dec-13 16:35N 36°02' E 014°51'114.0
2017-Dec-13 16:30N 36°01' E 014°50'714.3
2017-Dec-13 16:00N 35°55' E 014°45'714.5
2017-Dec-13 15:29N 35°49' E 014°40'6 1.0
2017-Dec-13 09:48N 35°49' E 014°32'0 0.0
2017-Dec-12 15:42N 35°49' E 014°32'0 0.0
2017-Dec-12 15:30N 35°49' E 014°32'0 0.1
2017-Dec-12 15:00N 35°49' E 014°32'1 1.6
2017-Dec-12 14:30N 35°49' E 014°33'2 4.6
2017-Dec-12 14:00N 35°48' E 014°36'1 1.1
2017-Dec-12 13:30N 35°48' E 014°35'2 4.8
2017-Dec-12 13:00N 35°47' E 014°38'1 0.6
2017-Dec-12 11:11N 35°46' E 014°38'2 7.6
2017-Dec-12 10:59N 35°46' E 014°36'811.3
2017-Dec-12 10:16N 35°46' E 014°26'312.6
2017-Dec-12 10:00N 35°47' E 014°22'713.0
2017-Dec-12 09:29N 35°50' E 014°15'613.4
2017-Dec-12 09:00N 35°54' E 014°08'713.6
2017-Dec-12 08:30N 35°58' E 014°01'713.2
2017-Dec-12 08:00N 36°01' E 013°55'713.5
2017-Dec-12 07:30N 36°05' E 013°47'713.5
2017-Dec-12 07:00N 36°08' E 013°40'713.5
2017-Dec-12 06:30N 36°12' E 013°34'  
2017-Dec-09 23:44N 36°30' W 000°35'  
Track history (hours):
 
Tides and Currents Weather Stations Pressure Air Temp Water Temp Dewpoint Dewpoint Depression Visibility Wind Speed Wind Dir Waves Ship Positions

Blandine

Last reported at 2017-Dec-14 08:00 UTC. Time now 2017-Dec-16 09:20 UTC.
Position N 38°41' E 015°32'.

Length 295 m; draft 10.1 m.

Type: Ship (hazmat cat A). MMSI: 255805794.

Date/timePositionNaut miles runAvg speedWind from/ knotsBaromVisibWave heightAir tempDewpointWater temp
2017-Dec-14 08:00N 38°41' E 015°32'610.8
2017-Dec-14 07:29N 38°36' E 015°34'611.1
2017-Dec-14 06:59N 38°31' E 015°37'511.4
2017-Dec-14 06:31N 38°25' E 015°39'610.9
2017-Dec-14 06:00N 38°20' E 015°42'7 8.8
2017-Dec-14 05:13N 38°14' E 015°38'313.4
2017-Dec-14 05:00N 38°12' E 015°37'5 9.1
2017-Dec-14 04:27N 38°07' E 015°36'410.0
2017-Dec-14 04:00N 38°02' E 015°36'510.5
2017-Dec-14 03:29N 37°57' E 015°35'610.7
2017-Dec-14 02:58N 37°51' E 015°35'910.9
2017-Dec-14 02:09N 37°42' E 015°35'210.9
2017-Dec-14 02:00N 37°41' E 015°34'511.1
2017-Dec-14 01:30N 37°35' E 015°34'1111.5
2017-Dec-14 00:31N 37°24' E 015°34'8911.2
2017-Dec-13 16:35N 36°02' E 014°51'114.0
2017-Dec-13 16:30N 36°01' E 014°50'714.3
2017-Dec-13 16:00N 35°55' E 014°45'714.5
2017-Dec-13 15:29N 35°49' E 014°40'6 1.0
2017-Dec-13 09:48N 35°49' E 014°32'0 0.0
2017-Dec-12 15:42N 35°49' E 014°32'0 0.0
2017-Dec-12 15:30N 35°49' E 014°32'0 0.1
2017-Dec-12 15:00N 35°49' E 014°32'1 1.6
2017-Dec-12 14:30N 35°49' E 014°33'2 4.6
2017-Dec-12 14:00N 35°48' E 014°36'1 1.1
2017-Dec-12 13:30N 35°48' E 014°35'2 4.8
2017-Dec-12 13:00N 35°47' E 014°38'1 0.6
2017-Dec-12 11:11N 35°46' E 014°38'2 7.6
2017-Dec-12 10:59N 35°46' E 014°36'811.3
2017-Dec-12 10:16N 35°46' E 014°26'312.6
2017-Dec-12 10:00N 35°47' E 014°22'713.0
2017-Dec-12 09:29N 35°50' E 014°15'613.4
2017-Dec-12 09:00N 35°54' E 014°08'713.6
2017-Dec-12 08:30N 35°58' E 014°01'713.2
2017-Dec-12 08:00N 36°01' E 013°55'713.5
2017-Dec-12 07:30N 36°05' E 013°47'713.5
2017-Dec-12 07:00N 36°08' E 013°40'713.5
2017-Dec-12 06:30N 36°12' E 013°34'  
2017-Dec-09 23:44N 36°30' W 000°35'  

Dump ship's entire track history